createdAt,value
2022-10-09T00:07:54.470Z,0.00
2022-10-09T00:08:54.928Z,0.00
2022-10-09T00:19:57.111Z,0.00
2022-10-09T00:20:56.983Z,0.00
2022-10-09T00:30:40.785Z,0.00
2022-10-09T00:31:40.045Z,0.00
2022-10-09T01:17:50.303Z,0.00
2022-10-09T01:18:50.013Z,0.00
2022-10-09T01:37:30.694Z,0.00
2022-10-09T01:38:30.579Z,0.00
2022-10-09T01:43:29.744Z,0.00
2022-10-09T01:44:29.559Z,0.00
2022-10-09T02:52:12.649Z,0.00
2022-10-09T02:53:12.309Z,0.00
2022-10-09T03:57:41.999Z,0.00
2022-10-09T03:58:41.825Z,0.00
2022-10-09T04:17:22.968Z,0.00
2022-10-09T04:18:22.654Z,0.00
2022-10-09T04:46:13.114Z,0.00
2022-10-09T04:47:13.660Z,0.00
2022-10-09T04:56:43.825Z,0.00
2022-10-09T04:57:43.623Z,0.00
2022-10-09T05:07:16.806Z,0.00
2022-10-09T05:08:16.526Z,4.00
2022-10-09T05:11:42.835Z,4.00
2022-10-09T05:12:41.275Z,4.00
2022-10-09T05:28:20.399Z,48.00
2022-10-09T05:29:20.303Z,52.00
2022-10-09T05:37:20.305Z,96.00
2022-10-09T05:38:20.053Z,104.00
2022-10-09T06:00:05.436Z,352.00
2022-10-09T06:01:04.782Z,364.00
2022-10-09T06:02:04.860Z,376.00
2022-10-09T06:03:04.651Z,384.00
2022-10-09T06:04:04.590Z,396.00
2022-10-09T06:20:10.888Z,552.00
2022-10-09T06:21:10.384Z,576.00
2022-10-09T06:32:12.914Z,636.00
2022-10-09T06:33:12.839Z,648.00
2022-10-09T07:01:12.935Z,1012.00
2022-10-09T07:02:12.668Z,1000.00
2022-10-09T07:03:12.617Z,1024.00
2022-10-09T07:04:12.505Z,1044.00
2022-10-09T07:05:12.436Z,1032.00
2022-10-09T07:06:12.528Z,1008.00
2022-10-09T07:07:12.303Z,1008.00
2022-10-09T07:08:12.225Z,1028.00
2022-10-09T07:09:12.165Z,1052.00
2022-10-09T07:10:12.091Z,1016.00
2022-10-09T07:11:12.026Z,1124.00
2022-10-09T07:12:11.964Z,1084.00
2022-10-09T07:13:11.894Z,1108.00
2022-10-09T07:14:11.827Z,1132.00
2022-10-09T07:15:11.762Z,1136.00
2022-10-09T07:16:11.759Z,1216.00
2022-10-09T07:17:11.631Z,1176.00
2022-10-09T07:18:11.566Z,1232.00
2022-10-09T07:19:11.631Z,1192.00
2022-10-09T07:20:11.432Z,1196.00
2022-10-09T07:21:11.369Z,1180.00
2022-10-09T07:22:11.307Z,1172.00
2022-10-09T07:23:11.236Z,1136.00
2022-10-09T07:24:11.167Z,1160.00
2022-10-09T07:25:11.101Z,1200.00
2022-10-09T07:26:11.035Z,1220.00
2022-10-09T07:27:10.978Z,1244.00
2022-10-09T07:28:11.003Z,1264.00
2022-10-09T07:29:10.841Z,1244.00
2022-10-09T07:30:10.770Z,1276.00
2022-10-09T07:31:10.751Z,1256.00
2022-10-09T07:32:10.842Z,1304.00
2022-10-09T07:33:10.577Z,1332.00
2022-10-09T07:34:10.513Z,1352.00
2022-10-09T07:35:10.442Z,1376.00
2022-10-09T07:36:10.384Z,1328.00
2022-10-09T07:37:10.312Z,1300.00
2022-10-09T07:38:10.243Z,1280.00
2022-10-09T07:39:10.187Z,1180.00
2022-10-09T07:40:10.116Z,1200.00
2022-10-09T07:41:10.057Z,1232.00
2022-10-09T07:42:09.985Z,1292.00
2022-10-09T07:43:09.917Z,1308.00
2022-10-09T07:44:09.853Z,1336.00
2022-10-09T07:45:09.800Z,1360.00
2022-10-09T07:46:09.764Z,1224.00
2022-10-09T07:47:09.653Z,1300.00
2022-10-09T07:48:09.592Z,1396.00
2022-10-09T07:49:09.525Z,1336.00
2022-10-09T07:50:09.456Z,1344.00
2022-10-09T07:51:09.393Z,1340.00
2022-10-09T07:52:09.326Z,1436.00
2022-10-09T07:53:09.266Z,1448.00
2022-10-09T07:54:09.196Z,1440.00
2022-10-09T07:55:09.133Z,1400.00
2022-10-09T07:56:09.065Z,1380.00
2022-10-09T07:57:09.001Z,1436.00
2022-10-09T07:59:30.683Z,1380.00
2022-10-09T08:00:30.386Z,1356.00
2022-10-09T08:02:37.404Z,1360.00
2022-10-09T08:03:37.158Z,1412.00
2022-10-09T08:07:17.233Z,1504.00
2022-10-09T08:08:17.022Z,1496.00
2022-10-09T08:10:12.850Z,1600.00
2022-10-09T08:11:12.657Z,1612.00
2022-10-09T08:13:18.180Z,1624.00
2022-10-09T08:14:19.490Z,1632.00
2022-10-09T08:17:56.391Z,1592.00
2022-10-09T08:18:56.061Z,1560.00
2022-10-09T08:22:34.404Z,1556.00
2022-10-09T08:23:34.172Z,1596.00
2022-10-09T08:25:41.179Z,1604.00
2022-10-09T08:26:40.928Z,1644.00
2022-10-09T08:30:18.056Z,1688.00
2022-10-09T08:31:17.898Z,1704.00
2022-10-09T08:57:37.765Z,1952.00
2022-10-09T08:58:37.477Z,1956.00
2022-10-09T09:20:28.619Z,2020.00
2022-10-09T09:21:28.562Z,2036.00
2022-10-09T09:22:24.660Z,2040.00
2022-10-09T09:23:24.408Z,2020.00
2022-10-09T09:24:24.171Z,1992.00
2022-10-09T09:25:24.621Z,2004.00
2022-10-09T09:26:23.890Z,1988.00
2022-10-09T09:27:23.905Z,1976.00
2022-10-09T09:28:24.330Z,1960.00
2022-10-09T09:29:26.647Z,1956.00
2022-10-09T09:30:24.652Z,1956.00
2022-10-09T09:31:23.687Z,1928.00
2022-10-09T09:32:23.430Z,1916.00
2022-10-09T09:33:23.314Z,1904.00
2022-10-09T09:41:51.848Z,1900.00
2022-10-09T09:42:51.634Z,1900.00
2022-10-09T09:43:52.302Z,1932.00
2022-10-09T09:44:51.336Z,1976.00
2022-10-09T09:45:51.011Z,2028.00
2022-10-09T09:46:50.802Z,2048.00
2022-10-09T09:47:51.341Z,2060.00
2022-10-09T09:48:50.657Z,2056.00
2022-10-09T09:49:50.589Z,2088.00
2022-10-09T09:51:04.952Z,2112.00
2022-10-09T09:51:50.462Z,2116.00
2022-10-09T09:52:50.396Z,2112.00
2022-10-09T09:53:50.335Z,2096.00
2022-10-09T09:54:50.268Z,2024.00
2022-10-09T09:55:50.211Z,2028.00
2022-10-09T09:57:21.835Z,2052.00
2022-10-09T09:57:50.748Z,2064.00
2022-10-09T09:58:50.020Z,2064.00
2022-10-09T09:59:49.946Z,2072.00
2022-10-09T10:00:49.919Z,2048.00
2022-10-09T10:01:49.867Z,2040.00
2022-10-09T10:02:50.098Z,2064.00
2022-10-09T10:03:50.044Z,2096.00
2022-10-09T10:04:49.656Z,2132.00
2022-10-09T10:05:49.579Z,2112.00
2022-10-09T10:06:49.478Z,2112.00
2022-10-09T10:07:49.380Z,2100.00
2022-10-09T10:08:49.591Z,2092.00
2022-10-09T10:09:49.342Z,2100.00
2022-10-09T10:10:49.221Z,2108.00
2022-10-09T10:11:49.172Z,2120.00
2022-10-09T10:12:49.439Z,2128.00
2022-10-09T10:13:49.054Z,2152.00
2022-10-09T10:14:49.445Z,2184.00
2022-10-09T10:15:49.777Z,2192.00
2022-10-09T10:16:49.201Z,2204.00
2022-10-09T10:17:49.006Z,2220.00
2022-10-09T10:18:49.003Z,2192.00
2022-10-09T10:19:48.659Z,2180.00
2022-10-09T10:20:48.923Z,2180.00
2022-10-09T10:21:48.835Z,2188.00
2022-10-09T10:22:48.780Z,2196.00
2022-10-09T10:23:48.440Z,2192.00
2022-10-09T10:24:48.360Z,2220.00
2022-10-09T10:25:48.284Z,2240.00
2022-10-09T10:26:48.244Z,2256.00
2022-10-09T10:27:48.466Z,2280.00
2022-10-09T10:28:48.086Z,2296.00
2022-10-09T10:29:48.025Z,2316.00
2022-10-09T10:30:47.960Z,2332.00
2022-10-09T10:31:47.900Z,2352.00
2022-10-09T10:32:47.841Z,2372.00
2022-10-09T10:33:47.775Z,2392.00
2022-10-09T10:34:47.733Z,2408.00
2022-10-09T10:35:47.550Z,2436.00
2022-10-09T10:36:47.860Z,2464.00
2022-10-09T10:37:47.945Z,2496.00
2022-10-09T10:38:47.451Z,2496.00
2022-10-09T10:39:47.387Z,2504.00
2022-10-09T10:40:47.952Z,2520.00
2022-10-09T10:41:47.951Z,2504.00
2022-10-09T10:42:47.233Z,2480.00
2022-10-09T10:43:47.134Z,2452.00
2022-10-09T10:44:47.072Z,2404.00
2022-10-09T10:45:47.011Z,2356.00
2022-10-09T10:46:47.012Z,2320.00
2022-10-09T10:47:47.208Z,2288.00
2022-10-09T10:48:46.717Z,2284.00
2022-10-09T10:49:46.978Z,2280.00
2022-10-09T10:50:46.689Z,2268.00
2022-10-09T10:51:46.629Z,2260.00
2022-10-09T10:52:46.569Z,2260.00
2022-10-09T10:53:46.509Z,2252.00
2022-10-09T10:54:46.438Z,2236.00
2022-10-09T10:55:46.377Z,2232.00
2022-10-09T10:56:46.314Z,2228.00
2022-10-09T10:57:46.640Z,2244.00
2022-10-09T10:58:46.457Z,2252.00
2022-10-09T10:59:46.127Z,2256.00
2022-10-09T11:00:46.449Z,2248.00
2022-10-09T11:01:45.995Z,2232.00
2022-10-09T11:02:45.992Z,2240.00
2022-10-09T11:03:45.941Z,2228.00
2022-10-09T11:04:45.806Z,2228.00
2022-10-09T11:05:45.736Z,2228.00
2022-10-09T11:06:45.679Z,2228.00
2022-10-09T11:07:45.622Z,2224.00
2022-10-09T11:08:45.548Z,2212.00
2022-10-09T11:09:45.482Z,2216.00
2022-10-09T11:10:45.418Z,2228.00
2022-10-09T11:11:45.359Z,2232.00
2022-10-09T11:12:48.735Z,2248.00
2022-10-09T11:13:45.239Z,2260.00
2022-10-09T11:14:45.164Z,2284.00
2022-10-09T11:15:45.113Z,2312.00
2022-10-09T11:16:45.104Z,2300.00
2022-10-09T11:17:44.892Z,2312.00
2022-10-09T11:18:44.915Z,2316.00
2022-10-09T11:19:45.699Z,2324.00
2022-10-09T11:20:44.812Z,2328.00
2022-10-09T11:21:44.730Z,2328.00
2022-10-09T11:22:44.669Z,2320.00
2022-10-09T11:23:44.619Z,2324.00
2022-10-09T11:24:44.544Z,2320.00
2022-10-09T11:25:44.470Z,2308.00
2022-10-09T11:26:44.337Z,2320.00
2022-10-09T11:27:44.350Z,2336.00
2022-10-09T11:28:44.358Z,2344.00
2022-10-09T11:29:44.229Z,2344.00
2022-10-09T11:30:44.160Z,2360.00
2022-10-09T11:31:44.158Z,2364.00
2022-10-09T11:32:44.034Z,2372.00
2022-10-09T11:33:43.971Z,2372.00
2022-10-09T11:34:43.902Z,2372.00
2022-10-09T11:37:04.356Z,2360.00
2022-10-09T11:38:04.576Z,2356.00
2022-10-09T11:39:59.065Z,2348.00
2022-10-09T11:40:57.736Z,2340.00
2022-10-09T11:41:58.204Z,2340.00
2022-10-09T11:42:57.157Z,2344.00
2022-10-09T11:43:57.421Z,2344.00
2022-10-09T11:44:57.078Z,2324.00
2022-10-09T11:45:57.162Z,2308.00
2022-10-09T11:47:00.278Z,2280.00
2022-10-09T11:47:57.347Z,2268.00
2022-10-09T11:48:57.017Z,2236.00
2022-10-09T11:51:17.802Z,2160.00
2022-10-09T11:52:17.399Z,2116.00
2022-10-09T11:53:17.272Z,2084.00
2022-10-09T11:54:17.660Z,2068.00
2022-10-09T11:55:17.193Z,2060.00
2022-10-09T11:56:17.101Z,2036.00
2022-10-09T11:57:17.106Z,2020.00
2022-10-09T11:58:17.697Z,2008.00
2022-10-09T11:59:17.003Z,2000.00
2022-10-09T12:00:17.179Z,1992.00
2022-10-09T12:01:17.048Z,1988.00
2022-10-09T12:02:16.794Z,1984.00
2022-10-09T12:03:17.227Z,1976.00
2022-10-09T12:43:49.904Z,2352.00
2022-10-09T12:44:49.479Z,2328.00
2022-10-09T13:11:22.693Z,1932.00
2022-10-09T13:12:22.267Z,1948.00
2022-10-09T13:13:22.111Z,2036.00
2022-10-09T13:14:21.714Z,2036.00
2022-10-09T13:15:22.069Z,2028.00
2022-10-09T13:16:21.666Z,2020.00
2022-10-09T13:17:21.802Z,2004.00
2022-10-09T13:18:21.842Z,2020.00
2022-10-09T13:19:21.610Z,2000.00
2022-10-09T13:20:21.509Z,1904.00
2022-10-09T13:21:22.099Z,2080.00
2022-10-09T13:22:22.098Z,2136.00
2022-10-09T13:23:21.137Z,1948.00
2022-10-09T13:24:28.890Z,1960.00
2022-10-09T13:26:25.405Z,2192.00
2022-10-09T13:27:25.320Z,2008.00
2022-10-09T13:31:01.782Z,2056.00
2022-10-09T13:32:01.487Z,2012.00
2022-10-09T13:33:01.415Z,2116.00
2022-10-09T13:34:01.369Z,2064.00
2022-10-09T13:35:01.311Z,2000.00
2022-10-09T13:36:01.221Z,1896.00
2022-10-09T13:37:01.173Z,1844.00
2022-10-09T13:38:01.115Z,1820.00
2022-10-09T13:39:01.057Z,1756.00
2022-10-09T13:40:00.987Z,1732.00
2022-10-09T13:41:00.932Z,1696.00
2022-10-09T13:42:00.895Z,1608.00
2022-10-09T13:43:00.779Z,1536.00
2022-10-09T13:44:00.717Z,1512.00
2022-10-09T13:45:00.657Z,1476.00
2022-10-09T13:46:00.658Z,1444.00
2022-10-09T13:47:00.527Z,1428.00
2022-10-09T13:48:00.468Z,1404.00
2022-10-09T13:49:00.404Z,1420.00
2022-10-09T13:50:00.342Z,1408.00
2022-10-09T13:51:00.284Z,1404.00
2022-10-09T13:52:00.212Z,1388.00
2022-10-09T13:53:00.148Z,1400.00
2022-10-09T13:54:00.103Z,1416.00
2022-10-09T13:55:00.025Z,1424.00
2022-10-09T13:56:01.280Z,1460.00
2022-10-09T13:56:59.901Z,1496.00
2022-10-09T13:57:59.838Z,1524.00
2022-10-09T13:58:59.772Z,1484.00
2022-10-09T13:59:59.720Z,1476.00
2022-10-09T14:00:59.687Z,1488.00
2022-10-09T14:01:59.618Z,1500.00
2022-10-09T14:02:59.517Z,1516.00
2022-10-09T14:03:59.456Z,1536.00
2022-10-09T14:04:59.392Z,1552.00
2022-10-09T14:05:59.333Z,1568.00
2022-10-09T14:06:59.275Z,1576.00
2022-10-09T14:07:59.207Z,1612.00
2022-10-09T14:08:59.145Z,1644.00
2022-10-09T14:09:59.082Z,1636.00
2022-10-09T14:10:59.016Z,1644.00
2022-10-09T14:11:58.965Z,1648.00
2022-10-09T14:12:58.892Z,1660.00
2022-10-09T14:13:58.824Z,1672.00
2022-10-09T14:14:58.761Z,1716.00
2022-10-09T14:15:58.713Z,1676.00
2022-10-09T14:16:58.639Z,1648.00
2022-10-09T14:17:58.590Z,1636.00
2022-10-09T14:18:58.513Z,1604.00
2022-10-09T14:19:58.447Z,1552.00
2022-10-09T14:20:58.387Z,1512.00
2022-10-09T14:21:58.330Z,1460.00
2022-10-09T14:22:58.260Z,1424.00
2022-10-09T14:23:58.192Z,1372.00
2022-10-09T14:24:58.140Z,1336.00
2022-10-09T14:25:58.072Z,1296.00
2022-10-09T14:26:58.005Z,1268.00
2022-10-09T14:27:57.946Z,1244.00
2022-10-09T14:28:57.885Z,1204.00
2022-10-09T14:29:57.816Z,1180.00
2022-10-09T14:30:57.760Z,1156.00
2022-10-09T14:31:57.700Z,1140.00
2022-10-09T14:32:57.628Z,1124.00
2022-10-09T14:33:57.568Z,1112.00
2022-10-09T14:34:57.506Z,1096.00
2022-10-09T14:35:57.439Z,1096.00
2022-10-09T14:36:57.379Z,1104.00
2022-10-09T14:37:57.323Z,1108.00
2022-10-09T14:38:57.257Z,1108.00
2022-10-09T14:39:57.186Z,1112.00
2022-10-09T14:40:57.125Z,1096.00
2022-10-09T14:41:57.064Z,1096.00
2022-10-09T14:42:56.996Z,1092.00
2022-10-09T14:43:56.949Z,1096.00
2022-10-09T14:44:56.875Z,1108.00
2022-10-09T14:45:56.816Z,1104.00
2022-10-09T14:46:56.760Z,1100.00
2022-10-09T14:47:56.692Z,1100.00
2022-10-09T14:48:56.634Z,1092.00
2022-10-09T14:49:56.555Z,1084.00
2022-10-09T14:50:56.495Z,1072.00
2022-10-09T14:51:56.456Z,1072.00
2022-10-09T14:52:56.372Z,1052.00
2022-10-09T14:53:56.307Z,1032.00
2022-10-09T14:54:56.246Z,1004.00
2022-10-09T14:55:56.184Z,972.00
2022-10-09T14:56:56.117Z,952.00
2022-10-09T14:57:56.057Z,916.00
2022-10-09T14:58:55.993Z,892.00
2022-10-09T14:59:55.931Z,872.00
2022-10-09T15:00:55.870Z,860.00
2022-10-09T15:01:55.803Z,852.00
2022-10-09T15:02:58.950Z,848.00
2022-10-09T15:03:55.729Z,852.00
2022-10-09T15:04:55.615Z,852.00
2022-10-09T15:05:55.561Z,856.00
2022-10-09T15:06:55.485Z,864.00
2022-10-09T15:07:55.419Z,864.00
2022-10-09T15:08:55.381Z,868.00
2022-10-09T15:09:55.302Z,872.00
2022-10-09T15:11:03.925Z,872.00
2022-10-09T15:14:33.669Z,832.00
2022-10-09T15:15:33.395Z,816.00
2022-10-09T15:17:37.961Z,788.00
2022-10-09T15:18:37.713Z,768.00
2022-10-09T15:20:44.047Z,744.00
2022-10-09T15:21:43.963Z,732.00
2022-10-09T15:23:48.338Z,708.00
2022-10-09T15:24:48.275Z,704.00
2022-10-09T15:28:24.358Z,656.00
2022-10-09T15:29:24.105Z,636.00
2022-10-09T15:31:29.557Z,600.00
2022-10-09T15:32:29.362Z,584.00
2022-10-09T15:34:36.576Z,556.00
2022-10-09T15:35:34.649Z,540.00
2022-10-09T15:39:11.522Z,500.00
2022-10-09T15:40:11.337Z,492.00
2022-10-09T15:42:15.706Z,460.00
2022-10-09T15:43:15.611Z,440.00
2022-10-09T15:45:08.962Z,408.00
2022-10-09T15:46:08.831Z,392.00
2022-10-09T15:48:13.193Z,356.00
2022-10-09T15:49:13.122Z,344.00
2022-10-09T15:51:17.546Z,308.00
2022-10-09T15:52:17.452Z,288.00
2022-10-09T15:54:21.987Z,260.00
2022-10-09T15:55:21.686Z,248.00
2022-10-09T15:58:57.534Z,212.00
2022-10-09T15:59:57.350Z,204.00
2022-10-09T16:02:01.790Z,184.00
2022-10-09T16:03:01.620Z,172.00
2022-10-09T16:04:54.939Z,160.00
2022-10-09T16:05:54.864Z,156.00
2022-10-09T16:11:03.090Z,128.00
2022-10-09T16:12:02.969Z,124.00
2022-10-09T16:15:29.668Z,116.00
2022-10-09T16:16:29.446Z,112.00
2022-10-09T16:29:04.823Z,68.00
2022-10-09T16:30:04.677Z,60.00
2022-10-09T16:38:04.149Z,36.00
2022-10-09T16:39:04.054Z,36.00
2022-10-09T18:47:39.899Z,0.00
2022-10-09T18:48:39.688Z,0.00
2022-10-09T19:04:29.922Z,0.00
2022-10-09T19:05:29.819Z,0.00
2022-10-09T19:10:37.051Z,0.00
2022-10-09T19:11:36.955Z,0.00
2022-10-09T19:18:05.880Z,0.00
2022-10-09T19:19:05.566Z,0.00
2022-10-09T20:32:59.341Z,0.00
2022-10-09T20:33:56.732Z,0.00
2022-10-09T21:17:02.015Z,0.00
2022-10-09T21:18:01.604Z,0.00
2022-10-09T22:07:15.015Z,0.00
2022-10-09T22:08:14.683Z,0.00
2022-10-09T22:52:53.889Z,0.00
2022-10-09T22:53:53.665Z,0.00
2022-10-09T22:54:54.547Z,0.00
2022-10-09T22:55:53.345Z,0.00
2022-10-09T22:56:54.131Z,0.00
2022-10-09T22:57:53.305Z,0.00
2022-10-09T22:58:53.161Z,0.00
2022-10-09T22:59:53.092Z,0.00
2022-10-09T23:00:53.018Z,0.00
2022-10-09T23:01:53.012Z,0.00
2022-10-09T23:02:53.152Z,0.00
2022-10-09T23:03:52.819Z,0.00
2022-10-09T23:04:52.760Z,0.00
2022-10-09T23:05:52.697Z,0.00
